sensor_id;sensor_type;location;lat;lon;timestamp;pressure;altitude;pressure_sealevel;temperature;humidity
75157;BME280;63736;50.076;8.198;2023-02-11T00:01:52;101501.13;;;2.77;100.00
75157;BME280;63736;50.076;8.198;2023-02-11T00:04:17;101508.09;;;2.80;100.00
75157;BME280;63736;50.076;8.198;2023-02-11T00:06:43;101507.22;;;2.79;100.00
75157;BME280;63736;50.076;8.198;2023-02-11T00:09:09;101506.31;;;2.80;100.00
75157;BME280;63736;50.076;8.198;2023-02-11T00:11:34;101510.75;;;2.80;100.00
75157;BME280;63736;50.076;8.198;2023-02-11T00:14:02;101507.22;;;2.81;100.00
75157;BME280;63736;50.076;8.198;2023-02-11T00:16:29;101510.75;;;2.80;100.00
75157;BME280;63736;50.076;8.198;2023-02-11T00:18:58;101504.53;;;2.83;100.00
75157;BME280;63736;50.076;8.198;2023-02-11T00:21:24;101515.06;;;2.84;100.00
75157;BME280;63736;50.076;8.198;2023-02-11T00:23:51;101510.59;;;2.88;100.00
75157;BME280;63736;50.076;8.198;2023-02-11T00:26:19;101508.84;;;2.87;100.00
75157;BME280;63736;50.076;8.198;2023-02-11T00:28:45;101502.72;;;2.86;100.00
75157;BME280;63736;50.076;8.198;2023-02-11T00:31:13;101494.78;;;2.86;100.00
75157;BME280;63736;50.076;8.198;2023-02-11T00:33:39;101493.00;;;2.87;100.00
75157;BME280;63736;50.076;8.198;2023-02-11T00:36:14;101490.34;;;2.88;100.00
75157;BME280;63736;50.076;8.198;2023-02-11T00:38:42;101481.47;;;2.91;100.00
75157;BME280;63736;50.076;8.198;2023-02-11T00:41:08;101490.28;;;2.91;100.00
75157;BME280;63736;50.076;8.198;2023-02-11T00:43:34;101492.84;;;2.94;100.00
75157;BME280;63736;50.076;8.198;2023-02-11T00:45:59;101487.56;;;2.94;100.00
75157;BME280;63736;50.076;8.198;2023-02-11T00:48:24;101484.03;;;2.95;100.00
75157;BME280;63736;50.076;8.198;2023-02-11T00:50:49;101474.34;;;2.96;100.00
75157;BME280;63736;50.076;8.198;2023-02-11T00:53:15;101480.47;;;2.98;100.00
75157;BME280;63736;50.076;8.198;2023-02-11T00:55:40;101485.66;;;3.01;100.00
75157;BME280;63736;50.076;8.198;2023-02-11T00:58:05;101490.88;;;3.04;100.00
75157;BME280;63736;50.076;8.198;2023-02-11T01:00:30;101487.31;;;3.07;100.00
75157;BME280;63736;50.076;8.198;2023-02-11T01:02:55;101495.19;;;3.10;100.00
75157;BME280;63736;50.076;8.198;2023-02-11T01:05:21;101495.13;;;3.11;100.00
75157;BME280;63736;50.076;8.198;2023-02-11T01:07:46;101484.56;;;3.11;100.00
75157;BME280;63736;50.076;8.198;2023-02-11T01:10:12;101489.84;;;3.11;100.00
75157;BME280;63736;50.076;8.198;2023-02-11T01:12:37;101480.16;;;3.13;100.00
75157;BME280;63736;50.076;8.198;2023-02-11T01:15:03;101481.84;;;3.14;100.00
75157;BME280;63736;50.076;8.198;2023-02-11T01:17:28;101473.03;;;3.16;100.00
75157;BME280;63736;50.076;8.198;2023-02-11T01:19:53;101475.63;;;3.19;100.00
75157;BME280;63736;50.076;8.198;2023-02-11T01:22:19;101470.31;;;3.20;100.00
75157;BME280;63736;50.076;8.198;2023-02-11T01:24:44;101481.69;;;3.22;100.00
75157;BME280;63736;50.076;8.198;2023-02-11T01:27:09;101476.41;;;3.22;100.00
75157;BME280;63736;50.076;8.198;2023-02-11T01:29:34;101467.59;;;3.23;100.00
75157;BME280;63736;50.076;8.198;2023-02-11T01:32:00;101461.47;;;3.23;100.00
75157;BME280;63736;50.076;8.198;2023-02-11T01:34:25;101462.31;;;3.23;100.00
75157;BME280;63736;50.076;8.198;2023-02-11T01:36:55;101459.63;;;3.25;100.00
75157;BME280;63736;50.076;8.198;2023-02-11T01:39:21;101462.31;;;3.23;100.00
75157;BME280;63736;50.076;8.198;2023-02-11T01:41:46;101460.56;;;3.22;100.00
75157;BME280;63736;50.076;8.198;2023-02-11T01:44:29;101458.88;;;3.20;100.00
75157;BME280;63736;50.076;8.198;2023-02-11T01:46:55;101462.38;;;3.20;100.00
75157;BME280;63736;50.076;8.198;2023-02-11T01:49:29;101458.00;;;3.19;100.00
75157;BME280;63736;50.076;8.198;2023-02-11T01:52:00;101451.88;;;3.19;100.00
75157;BME280;63736;50.076;8.198;2023-02-11T01:54:29;101445.69;;;3.18;100.00
75157;BME280;63736;50.076;8.198;2023-02-11T01:57:17;101434.25;;;3.19;100.00
75157;BME280;63736;50.076;8.198;2023-02-11T02:00:00;101434.31;;;3.16;100.00
75157;BME280;63736;50.076;8.198;2023-02-11T02:02:35;101448.38;;;3.17;100.00
75157;BME280;63736;50.076;8.198;2023-02-11T02:05:14;101447.56;;;3.13;100.00
75157;BME280;63736;50.076;8.198;2023-02-11T02:07:51;101444.13;;;3.11;100.00
75157;BME280;63736;50.076;8.198;2023-02-11T02:10:21;101445.06;;;3.08;100.00
75157;BME280;63736;50.076;8.198;2023-02-11T02:12:47;101441.53;;;3.08;100.00
75157;BME280;63736;50.076;8.198;2023-02-11T02:15:27;101440.63;;;3.09;100.00
75157;BME280;63736;50.076;8.198;2023-02-11T02:24:26;101418.59;;;3.10;100.00
75157;BME280;63736;50.076;8.198;2023-02-11T02:32:42;101413.25;;;3.13;100.00
75157;BME280;63736;50.076;8.198;2023-02-11T02:35:14;101409.78;;;3.11;100.00
75157;BME280;63736;50.076;8.198;2023-02-11T02:37:45;101416.88;;;3.09;100.00
75157;BME280;63736;50.076;8.198;2023-02-11T02:40:18;101420.41;;;3.08;100.00
75157;BME280;63736;50.076;8.198;2023-02-11T02:42:45;101418.66;;;3.07;100.00
75157;BME280;63736;50.076;8.198;2023-02-11T02:45:11;101421.25;;;3.10;100.00
75157;BME280;63736;50.076;8.198;2023-02-11T02:47:37;101419.50;;;3.09;100.00
75157;BME280;63736;50.076;8.198;2023-02-11T02:50:03;101424.75;;;3.10;100.00
75157;BME280;63736;50.076;8.198;2023-02-11T03:00:03;101414.13;;;3.12;100.00
75157;BME280;63736;50.076;8.198;2023-02-11T03:02:33;101409.78;;;3.09;100.00
75157;BME280;63736;50.076;8.198;2023-02-11T03:10:25;101405.50;;;3.05;100.00
75157;BME280;63736;50.076;8.198;2023-02-11T03:12:52;101402.03;;;3.03;100.00
75157;BME280;63736;50.076;8.198;2023-02-11T03:15:19;101406.44;;;3.03;100.00
75157;BME280;63736;50.076;8.198;2023-02-11T03:17:48;101405.53;;;3.04;100.00
75157;BME280;63736;50.076;8.198;2023-02-11T03:20:16;101406.38;;;3.06;100.00
75157;BME280;63736;50.076;8.198;2023-02-11T03:22:47;101412.53;;;3.06;100.00
75157;BME280;63736;50.076;8.198;2023-02-11T03:25:13;101401.91;;;3.08;100.00
75157;BME280;63736;50.076;8.198;2023-02-11T03:30:12;101391.31;;;3.09;100.00
75157;BME280;63736;50.076;8.198;2023-02-11T03:32:44;101383.41;;;3.09;100.00
75157;BME280;63736;50.076;8.198;2023-02-11T03:35:20;101393.06;;;3.10;100.00
75157;BME280;63736;50.076;8.198;2023-02-11T03:37:49;101387.91;;;3.06;100.00
75157;BME280;63736;50.076;8.198;2023-02-11T03:40:35;101388.78;;;3.05;100.00
75157;BME280;63736;50.076;8.198;2023-02-11T03:43:19;101372.06;;;3.06;100.00
75157;BME280;63736;50.076;8.198;2023-02-11T03:45:49;101364.16;;;3.04;100.00
75157;BME280;63736;50.076;8.198;2023-02-11T03:48:22;101352.78;;;3.02;100.00
75157;BME280;63736;50.076;8.198;2023-02-11T03:50:49;101348.44;;;3.00;100.00
75157;BME280;63736;50.076;8.198;2023-02-11T03:53:16;101348.47;;;2.98;100.00
75157;BME280;63736;50.076;8.198;2023-02-11T03:55:44;101345.88;;;2.95;100.00
75157;BME280;63736;50.076;8.198;2023-02-11T03:58:11;101339.84;;;2.91;100.00
75157;BME280;63736;50.076;8.198;2023-02-11T04:00:38;101324.16;;;2.84;100.00
75157;BME280;63736;50.076;8.198;2023-02-11T04:03:06;101323.41;;;2.77;100.00
75157;BME280;63736;50.076;8.198;2023-02-11T04:05:31;101316.59;;;2.67;100.00
75157;BME280;63736;50.076;8.198;2023-02-11T04:07:56;101319.44;;;2.57;100.00
75157;BME280;63736;50.076;8.198;2023-02-11T04:10:22;101312.69;;;2.45;100.00
75157;BME280;63736;50.076;8.198;2023-02-11T04:12:47;101318.16;;;2.36;100.00
75157;BME280;63736;50.076;8.198;2023-02-11T04:15:12;101329.75;;;2.29;100.00
75157;BME280;63736;50.076;8.198;2023-02-11T04:17:38;101334.25;;;2.22;100.00
75157;BME280;63736;50.076;8.198;2023-02-11T04:20:03;101331.72;;;2.18;100.00
75157;BME280;63736;50.076;8.198;2023-02-11T04:22:29;101346.72;;;2.14;100.00
75157;BME280;63736;50.076;8.198;2023-02-11T04:24:55;101348.56;;;2.09;100.00
75157;BME280;63736;50.076;8.198;2023-02-11T04:27:20;101348.69;;;2.04;100.00
75157;BME280;63736;50.076;8.198;2023-02-11T04:29:45;101348.69;;;2.03;100.00
75157;BME280;63736;50.076;8.198;2023-02-11T04:32:11;101351.41;;;2.00;100.00
75157;BME280;63736;50.076;8.198;2023-02-11T04:34:36;101355.00;;;1.95;100.00
75157;BME280;63736;50.076;8.198;2023-02-11T04:37:02;101362.13;;;1.90;100.00
75157;BME280;63736;50.076;8.198;2023-02-11T04:39:27;101364.00;;;1.82;100.00
75157;BME280;63736;50.076;8.198;2023-02-11T04:41:52;101364.03;;;1.80;100.00
75157;BME280;63736;50.076;8.198;2023-02-11T04:44:17;101361.44;;;1.79;100.00
75157;BME280;63736;50.076;8.198;2023-02-11T04:46:43;101365.81;;;1.80;100.00
75157;BME280;63736;50.076;8.198;2023-02-11T04:49:10;101364.88;;;1.83;100.00
75157;BME280;63736;50.076;8.198;2023-02-11T04:51:36;101361.28;;;1.87;100.00
75157;BME280;63736;50.076;8.198;2023-02-11T04:54:01;101355.94;;;1.90;100.00
75157;BME280;63736;50.076;8.198;2023-02-11T04:56:27;101352.41;;;1.92;100.00
75157;BME280;63736;50.076;8.198;2023-02-11T04:58:52;101350.69;;;1.91;100.00
75157;BME280;63736;50.076;8.198;2023-02-11T05:01:17;101343.75;;;1.86;100.00
75157;BME280;63736;50.076;8.198;2023-02-11T05:03:42;101356.13;;;1.80;100.00
75157;BME280;63736;50.076;8.198;2023-02-11T05:06:08;101352.78;;;1.72;100.00
75157;BME280;63736;50.076;8.198;2023-02-11T05:08:33;101366.06;;;1.64;100.00
75157;BME280;63736;50.076;8.198;2023-02-11T05:10:59;101342.53;;;1.55;100.00
75157;BME280;63736;50.076;8.198;2023-02-11T05:13:26;101340.81;;;1.53;100.00
75157;BME280;63736;50.076;8.198;2023-02-11T05:15:51;101314.50;;;1.51;100.00
75157;BME280;63736;50.076;8.198;2023-02-11T05:18:16;101316.19;;;1.55;100.00
75157;BME280;63736;50.076;8.198;2023-02-11T05:20:41;101309.13;;;1.59;100.00
75157;BME280;63736;50.076;8.198;2023-02-11T05:23:07;101305.56;;;1.61;100.00
75157;BME280;63736;50.076;8.198;2023-02-11T05:25:32;101304.59;;;1.65;100.00
75157;BME280;63736;50.076;8.198;2023-02-11T05:27:57;101308.06;;;1.69;100.00
75157;BME280;63736;50.076;8.198;2023-02-11T05:30:22;101296.59;;;1.70;100.00
75157;BME280;63736;50.076;8.198;2023-02-11T05:32:48;101309.75;;;1.72;100.00
75157;BME280;63736;50.076;8.198;2023-02-11T05:35:13;101318.53;;;1.72;100.00
75157;BME280;63736;50.076;8.198;2023-02-11T05:37:38;101325.56;;;1.72;100.00
75157;BME280;63736;50.076;8.198;2023-02-11T05:40:03;101329.91;;;1.74;100.00
75157;BME280;63736;50.076;8.198;2023-02-11T05:42:29;101329.00;;;1.75;100.00
75157;BME280;63736;50.076;8.198;2023-02-11T05:44:54;101334.25;;;1.75;100.00
75157;BME280;63736;50.076;8.198;2023-02-11T05:47:19;101353.56;;;1.77;100.00
75157;BME280;63736;50.076;8.198;2023-02-11T05:49:44;101347.41;;;1.77;100.00
75157;BME280;63736;50.076;8.198;2023-02-11T05:52:09;101343.03;;;1.77;100.00
75157;BME280;63736;50.076;8.198;2023-02-11T05:54:35;101341.25;;;1.78;100.00
75157;BME280;63736;50.076;8.198;2023-02-11T05:57:00;101329.91;;;1.74;100.00
75157;BME280;63736;50.076;8.198;2023-02-11T05:59:25;101337.84;;;1.71;100.00
75157;BME280;63736;50.076;8.198;2023-02-11T06:01:50;101342.31;;;1.68;100.00
75157;BME280;63736;50.076;8.198;2023-02-11T06:04:15;101344.16;;;1.62;100.00
75157;BME280;63736;50.076;8.198;2023-02-11T06:06:40;101359.16;;;1.59;100.00
75157;BME280;63736;50.076;8.198;2023-02-11T06:09:06;101351.34;;;1.53;100.00
75157;BME280;63736;50.076;8.198;2023-02-11T06:11:31;101347.91;;;1.49;100.00
75157;BME280;63736;50.076;8.198;2023-02-11T06:13:56;101364.59;;;1.48;100.00
75157;BME280;63736;50.076;8.198;2023-02-11T06:16:21;101362.84;;;1.47;100.00
75157;BME280;63736;50.076;8.198;2023-02-11T06:18:47;101358.50;;;1.46;100.00
75157;BME280;63736;50.076;8.198;2023-02-11T06:21:12;101356.78;;;1.43;100.00
75157;BME280;63736;50.076;8.198;2023-02-11T06:23:37;101366.44;;;1.41;100.00
75157;BME280;63736;50.076;8.198;2023-02-11T06:26:05;101356.81;;;1.42;100.00
75157;BME280;63736;50.076;8.198;2023-02-11T06:28:31;101363.78;;;1.44;100.00
75157;BME280;63736;50.076;8.198;2023-02-11T06:30:57;101365.47;;;1.48;100.00
75157;BME280;63736;50.076;8.198;2023-02-11T06:33:22;101355.72;;;1.54;100.00
75157;BME280;63736;50.076;8.198;2023-02-11T06:35:48;101358.28;;;1.58;100.00
75157;BME280;63736;50.076;8.198;2023-02-11T06:38:13;101362.66;;;1.59;100.00
75157;BME280;63736;50.076;8.198;2023-02-11T06:40:38;101366.09;;;1.63;100.00
75157;BME280;63736;50.076;8.198;2023-02-11T06:43:04;101368.66;;;1.69;100.00
75157;BME280;63736;50.076;8.198;2023-02-11T06:45:29;101356.25;;;1.73;100.00
75157;BME280;63736;50.076;8.198;2023-02-11T06:47:54;101353.63;;;1.74;100.00
75157;BME280;63736;50.076;8.198;2023-02-11T06:50:19;101352.72;;;1.74;100.00
75157;BME280;63736;50.076;8.198;2023-02-11T06:52:45;101353.66;;;1.71;100.00
75157;BME280;63736;50.076;8.198;2023-02-11T06:55:10;101353.69;;;1.70;100.00
75157;BME280;63736;50.076;8.198;2023-02-11T06:57:35;101360.78;;;1.66;100.00
75157;BME280;63736;50.076;8.198;2023-02-11T07:00:01;101351.22;;;1.60;100.00
75157;BME280;63736;50.076;8.198;2023-02-11T07:02:26;101340.78;;;1.54;100.00
75157;BME280;63736;50.076;8.198;2023-02-11T07:04:51;101344.38;;;1.50;100.00
75157;BME280;63736;50.076;8.198;2023-02-11T07:07:17;101351.44;;;1.46;100.00
75157;BME280;63736;50.076;8.198;2023-02-11T07:09:42;101335.66;;;1.46;100.00
75157;BME280;63736;50.076;8.198;2023-02-11T07:12:08;101337.41;;;1.47;100.00
75157;BME280;63736;50.076;8.198;2023-02-11T07:14:33;101344.34;;;1.52;100.00
75157;BME280;63736;50.076;8.198;2023-02-11T07:16:58;101348.63;;;1.57;100.00
75157;BME280;63736;50.076;8.198;2023-02-11T07:19:24;101343.19;;;1.68;100.00
75157;BME280;63736;50.076;8.198;2023-02-11T07:21:49;101336.72;;;1.85;100.00
75157;BME280;63736;50.076;8.198;2023-02-11T07:24:14;101339.06;;;2.02;100.00
75157;BME280;63736;50.076;8.198;2023-02-11T07:26:39;101349.22;;;2.22;100.00
75157;BME280;63736;50.076;8.198;2023-02-11T07:29:05;101347.97;;;2.40;100.00
75157;BME280;63736;50.076;8.198;2023-02-11T07:31:30;101359.94;;;2.56;100.00
75157;BME280;63736;50.076;8.198;2023-02-11T07:33:57;101358.81;;;2.68;100.00
75157;BME280;63736;50.076;8.198;2023-02-11T07:36:23;101356.00;;;2.76;100.00
75157;BME280;63736;50.076;8.198;2023-02-11T07:38:49;101361.09;;;2.85;100.00
75157;BME280;63736;50.076;8.198;2023-02-11T07:41:15;101360.03;;;2.92;100.00
75157;BME280;63736;50.076;8.198;2023-02-11T07:43:41;101360.75;;;3.01;100.00
75157;BME280;63736;50.076;8.198;2023-02-11T07:46:10;101360.56;;;3.07;100.00
75157;BME280;63736;50.076;8.198;2023-02-11T07:48:36;101363.06;;;3.13;100.00
75157;BME280;63736;50.076;8.198;2023-02-11T07:51:12;101358.50;;;3.20;100.00
75157;BME280;63736;50.076;8.198;2023-02-11T07:53:38;101355.66;;;3.29;100.00
75157;BME280;63736;50.076;8.198;2023-02-11T07:56:05;101353.56;;;3.42;100.00
75157;BME280;63736;50.076;8.198;2023-02-11T07:58:31;101353.31;;;3.53;100.00
75157;BME280;63736;50.076;8.198;2023-02-11T08:01:02;101356.44;;;3.69;100.00
75157;BME280;63736;50.076;8.198;2023-02-11T08:03:27;101362.13;;;3.86;100.00
75157;BME280;63736;50.076;8.198;2023-02-11T08:05:52;101369.66;;;4.02;100.00
75157;BME280;63736;50.076;8.198;2023-02-11T08:08:18;101368.41;;;4.17;100.00
75157;BME280;63736;50.076;8.198;2023-02-11T08:10:43;101382.00;;;4.34;100.00
75157;BME280;63736;50.076;8.198;2023-02-11T08:13:08;101382.69;;;4.41;100.00
75157;BME280;63736;50.076;8.198;2023-02-11T08:15:33;101366.22;;;4.31;100.00
75157;BME280;63736;50.076;8.198;2023-02-11T08:17:59;101369.91;;;4.25;100.00
75157;BME280;63736;50.076;8.198;2023-02-11T08:20:24;101363.59;;;4.31;100.00
75157;BME280;63736;50.076;8.198;2023-02-11T08:22:49;101373.03;;;4.40;100.00
75157;BME280;63736;50.076;8.198;2023-02-11T08:25:15;101376.84;;;4.61;100.00
75157;BME280;63736;50.076;8.198;2023-02-11T08:27:40;101372.69;;;5.10;100.00
75157;BME280;63736;50.076;8.198;2023-02-11T08:30:06;101380.88;;;6.11;100.00
75157;BME280;63736;50.076;8.198;2023-02-11T08:32:33;101378.84;;;6.91;100.00
75157;BME280;63736;50.076;8.198;2023-02-11T08:34:59;101371.88;;;7.33;99.19
75157;BME280;63736;50.076;8.198;2023-02-11T08:37:24;101378.66;;;7.18;94.86
75157;BME280;63736;50.076;8.198;2023-02-11T08:39:49;101374.66;;;6.84;93.14
75157;BME280;63736;50.076;8.198;2023-02-11T08:42:15;101375.16;;;6.71;94.54
75157;BME280;63736;50.076;8.198;2023-02-11T08:44:40;101375.50;;;6.62;95.62
75157;BME280;63736;50.076;8.198;2023-02-11T08:47:05;101370.34;;;6.57;97.17
75157;BME280;63736;50.076;8.198;2023-02-11T08:49:31;101370.50;;;6.53;97.82
75157;BME280;63736;50.076;8.198;2023-02-11T08:51:58;101379.78;;;6.42;97.08
75157;BME280;63736;50.076;8.198;2023-02-11T08:54:28;101384.41;;;6.36;99.40
75157;BME280;63736;50.076;8.198;2023-02-11T08:56:53;101395.03;;;6.36;100.00
75157;BME280;63736;50.076;8.198;2023-02-11T08:59:19;101394.94;;;6.39;100.00
75157;BME280;63736;50.076;8.198;2023-02-11T09:01:44;101402.13;;;6.35;100.00
75157;BME280;63736;50.076;8.198;2023-02-11T09:04:11;101395.00;;;6.37;100.00
75157;BME280;63736;50.076;8.198;2023-02-11T09:06:37;101399.91;;;6.48;100.00
75157;BME280;63736;50.076;8.198;2023-02-11T09:09:02;101395.09;;;6.58;100.00
75157;BME280;63736;50.076;8.198;2023-02-11T09:11:33;101385.94;;;6.67;100.00
75157;BME280;63736;50.076;8.198;2023-02-11T09:14:00;101386.91;;;6.88;100.00
75157;BME280;63736;50.076;8.198;2023-02-11T09:16:28;101384.78;;;7.20;100.00
75157;BME280;63736;50.076;8.198;2023-02-11T09:18:56;101386.13;;;7.52;99.32
75157;BME280;63736;50.076;8.198;2023-02-11T09:21:22;101386.25;;;7.71;96.05
75157;BME280;63736;50.076;8.198;2023-02-11T09:23:47;101387.16;;;7.70;94.86
75157;BME280;63736;50.076;8.198;2023-02-11T09:26:22;101402.19;;;7.71;94.06
75157;BME280;63736;50.076;8.198;2023-02-11T09:28:48;101402.44;;;7.65;94.85
75157;BME280;63736;50.076;8.198;2023-02-11T09:31:16;101413.22;;;7.62;94.91
75157;BME280;63736;50.076;8.198;2023-02-11T09:33:43;101414.88;;;7.65;94.83
75157;BME280;63736;50.076;8.198;2023-02-11T09:36:13;101409.44;;;7.68;94.94
75157;BME280;63736;50.076;8.198;2023-02-11T09:38:39;101408.50;;;7.69;94.89
75157;BME280;63736;50.076;8.198;2023-02-11T09:41:04;101415.53;;;7.70;96.12
75157;BME280;63736;50.076;8.198;2023-02-11T09:43:37;101419.88;;;7.72;95.69
75157;BME280;63736;50.076;8.198;2023-02-11T09:46:09;101422.59;;;7.71;95.29
75157;BME280;63736;50.076;8.198;2023-02-11T09:48:40;101429.13;;;7.64;95.08
75157;BME280;63736;50.076;8.198;2023-02-11T09:51:17;101424.97;;;7.56;94.87
75157;BME280;63736;50.076;8.198;2023-02-11T09:53:44;101426.84;;;7.54;94.59
75157;BME280;63736;50.076;8.198;2023-02-11T09:56:13;101419.63;;;7.56;94.94
75157;BME280;63736;50.076;8.198;2023-02-11T09:58:41;101422.19;;;7.59;94.39
75157;BME280;63736;50.076;8.198;2023-02-11T10:06:58;101446.97;;;7.60;94.51
75157;BME280;63736;50.076;8.198;2023-02-11T10:09:50;101447.97;;;7.57;93.98
75157;BME280;63736;50.076;8.198;2023-02-11T10:12:28;101445.50;;;7.53;93.68
75157;BME280;63736;50.076;8.198;2023-02-11T10:15:24;101444.78;;;7.49;94.46
75157;BME280;63736;50.076;8.198;2023-02-11T10:18:04;101445.75;;;7.47;94.79
75157;BME280;63736;50.076;8.198;2023-02-11T10:20:47;101452.84;;;7.46;95.91
75157;BME280;63736;50.076;8.198;2023-02-11T10:23:20;101451.06;;;7.47;96.42
75157;BME280;63736;50.076;8.198;2023-02-11T10:25:49;101456.19;;;7.51;96.23
75157;BME280;63736;50.076;8.198;2023-02-11T10:28:22;101458.78;;;7.53;96.38
75157;BME280;63736;50.076;8.198;2023-02-11T10:31:08;101443.81;;;7.50;95.42
75157;BME280;63736;50.076;8.198;2023-02-11T10:33:48;101442.97;;;7.50;94.91
75157;BME280;63736;50.076;8.198;2023-02-11T10:36:17;101441.22;;;7.49;95.37
75157;BME280;63736;50.076;8.198;2023-02-11T10:38:43;101444.94;;;7.44;94.47
75157;BME280;63736;50.076;8.198;2023-02-11T10:41:16;101447.78;;;7.40;95.07
75157;BME280;63736;50.076;8.198;2023-02-11T10:43:42;101447.84;;;7.38;95.53
75157;BME280;63736;50.076;8.198;2023-02-11T10:46:21;101456.50;;;7.43;96.17
75157;BME280;63736;50.076;8.198;2023-02-11T10:48:50;101456.09;;;7.54;96.10
75157;BME280;63736;50.076;8.198;2023-02-11T10:51:25;101445.00;;;7.65;96.44
75157;BME280;63736;50.076;8.198;2023-02-11T10:56:33;101423.94;;;7.81;95.19
75157;BME280;63736;50.076;8.198;2023-02-11T10:59:01;101412.81;;;7.93;94.68
75157;BME280;63736;50.076;8.198;2023-02-11T11:02:30;101419.31;;;8.07;94.42
75157;BME280;63736;50.076;8.198;2023-02-11T11:04:39;101417.06;;;8.18;94.52
75157;BME280;63736;50.076;8.198;2023-02-11T11:07:18;101411.25;;;8.29;93.90
75157;BME280;63736;50.076;8.198;2023-02-11T11:12:24;101400.84;;;8.43;93.78
75157;BME280;63736;50.076;8.198;2023-02-11T11:14:59;101410.19;;;8.54;93.70
75157;BME280;63736;50.076;8.198;2023-02-11T11:17:25;101400.66;;;8.69;93.22
75157;BME280;63736;50.076;8.198;2023-02-11T11:20:02;101399.06;;;8.84;92.14
75157;BME280;63736;50.076;8.198;2023-02-11T11:22:37;101396.50;;;9.01;91.77
75157;BME280;63736;50.076;8.198;2023-02-11T11:25:03;101396.13;;;9.09;88.93
75157;BME280;63736;50.076;8.198;2023-02-11T11:27:28;101393.78;;;9.20;89.41
75157;BME280;63736;50.076;8.198;2023-02-11T11:29:54;101389.66;;;9.32;88.17
75157;BME280;63736;50.076;8.198;2023-02-11T11:32:29;101406.53;;;9.33;86.98
75157;BME280;63736;50.076;8.198;2023-02-11T11:35:00;101399.38;;;9.33;87.10
75157;BME280;63736;50.076;8.198;2023-02-11T11:37:29;101404.38;;;9.22;87.09
75157;BME280;63736;50.076;8.198;2023-02-11T11:42:27;101420.41;;;9.03;90.55
75157;BME280;63736;50.076;8.198;2023-02-11T11:45:20;101410.03;;;8.97;91.20
75157;BME280;63736;50.076;8.198;2023-02-11T11:47:58;101407.63;;;8.90;92.30
75157;BME280;63736;50.076;8.198;2023-02-11T11:50:34;101413.03;;;8.89;92.92
75157;BME280;63736;50.076;8.198;2023-02-11T11:55:44;101416.94;;;9.01;92.52
75157;BME280;63736;50.076;8.198;2023-02-11T11:58:17;101412.41;;;9.03;92.99
75157;BME280;63736;50.076;8.198;2023-02-11T12:04:10;101403.97;;;9.31;91.43
75157;BME280;63736;50.076;8.198;2023-02-11T12:12:34;101396.44;;;9.57;89.88
75157;BME280;63736;50.076;8.198;2023-02-11T12:18:16;101404.47;;;9.57;90.02
75157;BME280;63736;50.076;8.198;2023-02-11T12:20:53;101407.63;;;9.65;90.19
75157;BME280;63736;50.076;8.198;2023-02-11T12:26:21;101401.56;;;9.79;89.16
75157;BME280;63736;50.076;8.198;2023-02-11T12:29:02;101401.53;;;9.81;89.58
75157;BME280;63736;50.076;8.198;2023-02-11T12:34:26;101401.13;;;9.88;89.43
75157;BME280;63736;50.076;8.198;2023-02-11T12:40:06;101384.94;;;9.91;89.34
75157;BME280;63736;50.076;8.198;2023-02-11T12:42:44;101386.75;;;9.91;90.14
75157;BME280;63736;50.076;8.198;2023-02-11T12:45:40;101391.53;;;9.84;90.01
75157;BME280;63736;50.076;8.198;2023-02-11T12:51:11;101391.47;;;9.86;90.76
75157;BME280;63736;50.076;8.198;2023-02-11T12:56:52;101392.81;;;9.77;90.91
75157;BME280;63736;50.076;8.198;2023-02-11T12:59:39;101384.25;;;9.70;91.69
75157;BME280;63736;50.076;8.198;2023-02-11T13:02:17;101380.78;;;9.68;92.45
75157;BME280;63736;50.076;8.198;2023-02-11T13:04:48;101387.13;;;9.66;92.23
75157;BME280;63736;50.076;8.198;2023-02-11T13:07:38;101383.09;;;9.57;92.86
75157;BME280;63736;50.076;8.198;2023-02-11T13:10:29;101381.78;;;9.48;92.80
75157;BME280;63736;50.076;8.198;2023-02-11T13:12:57;101378.41;;;9.45;93.38
75157;BME280;63736;50.076;8.198;2023-02-11T13:15:46;101370.47;;;9.43;93.81
75157;BME280;63736;50.076;8.198;2023-02-11T13:18:31;101370.47;;;9.43;94.17
75157;BME280;63736;50.076;8.198;2023-02-11T13:30:07;101368.38;;;9.67;93.30
75157;BME280;63736;50.076;8.198;2023-02-11T13:33:05;101368.63;;;9.63;92.96
75157;BME280;63736;50.076;8.198;2023-02-11T13:35:43;101361.75;;;9.57;92.65
75157;BME280;63736;50.076;8.198;2023-02-11T13:38:22;101355.81;;;9.52;93.29
75157;BME280;63736;50.076;8.198;2023-02-11T13:41:06;101354.31;;;9.46;93.97
75157;BME280;63736;50.076;8.198;2023-02-11T13:43:40;101355.97;;;9.49;94.38
75157;BME280;63736;50.076;8.198;2023-02-11T13:46:07;101358.34;;;9.55;94.16
75157;BME280;63736;50.076;8.198;2023-02-11T13:48:36;101358.97;;;9.60;93.84
75157;BME280;63736;50.076;8.198;2023-02-11T13:51:07;101365.06;;;9.62;93.65
75157;BME280;63736;50.076;8.198;2023-02-11T13:53:49;101356.13;;;9.63;94.02
75157;BME280;63736;50.076;8.198;2023-02-11T13:56:38;101357.00;;;9.64;93.65
75157;BME280;63736;50.076;8.198;2023-02-11T13:59:43;101358.03;;;9.61;94.25
75157;BME280;63736;50.076;8.198;2023-02-11T14:02:20;101365.41;;;9.56;94.42
75157;BME280;63736;50.076;8.198;2023-02-11T14:08:12;101371.13;;;9.48;95.24
75157;BME280;63736;50.076;8.198;2023-02-11T14:11:00;101369.69;;;9.41;95.21
75157;BME280;63736;50.076;8.198;2023-02-11T14:13:31;101376.03;;;9.38;95.92
75157;BME280;63736;50.076;8.198;2023-02-11T14:16:08;101375.19;;;9.38;95.82
75157;BME280;63736;50.076;8.198;2023-02-11T14:21:13;101362.50;;;9.24;96.00
75157;BME280;63736;50.076;8.198;2023-02-11T14:23:40;101353.94;;;9.17;96.50
75157;BME280;63736;50.076;8.198;2023-02-11T14:28:59;101359.75;;;9.08;98.12
75157;BME280;63736;50.076;8.198;2023-02-11T14:31:35;101357.00;;;9.09;98.63
75157;BME280;63736;50.076;8.198;2023-02-11T14:34:13;101360.28;;;9.15;98.61